Briton Ferry, United Kingdom
Current Conditions -  °F | °C
As of 11:50 PM on Thursday 18 Dec 2014 (Local Time) from EGDX Reporting Station
Moderate Rain Moderate Rain  
Wind Chill: 54°   Ceiling: 300
Heat Index: 54°   Visibility: 6mi
Dew Point: 52°   Wind: 26mph
Humidity: 94%   Direction: 250°WSW
Pressure: 29.8"   Gusts: NA
Location:  51.63°N, 3.82°W
Report Text: EGDX 182350Z AUTO 25023KT 9999 RA OVC003/// 12/11 Q1009
Loading
Personal Weather Stations






























Interactive Weather Map New forecast layout! Learn more

10-Day Weather Forecast

Advertisements
Track Severe Weather on mobile